»·PEaware :: SWA186 KBUR-KDAL

SWA186 :: KBUR-KDAL

FLIGHT INFORMATION

Flight Status: Arrived
Operator:
Southwest Airlines
More flights by this operator :: More flights under this callsign
Pilot: Drew L. (13237)
Aircraft: BOEING 737-800
(B738)
More flights by this aircraft type
Origin: KBUR Bob Hope-Burbank
United States
Destination: KDAL Dallas Love
United States
More flights between these airports :: More routes between these airports
Route: SLAPP1 BLH J169 TFD J50 SSO J4 INK BGTOE BACHR4
File this flight plan on PilotEdge
Remarks: RMK / SIMBRIEF
Altitude:
(Current/Filed)
35,000ft
Speed:
(Current/Filed)
453kts
Departed: 23-Nov-19 03:18 AM
Arrived: 23-Nov-19 05:46 AM
Distance/Time
Traveled:
1077nm/2:28
Distance/Time
To Go:
Arrived

Flight Plot

Page will automatically refresh every two minutes.

Flight plan parsing failed; only flown route is shown


Map Options




Map Legend


Flown Route
Filed Route
Departure Airport
Arrival Airport
Navaid (VOR, NDB)
Fix

Horizontal Profiles

Position Reports

Time Latitude Longitude Heading Altitude Ground
Speed
23-Nov-19 02:55 34.196901 -118.352870 178 783ft 0kts
23-Nov-19 02:56 34.196901 -118.352870 178 783ft 0kts
23-Nov-19 02:57 34.196901 -118.352870 178 783ft 0kts
23-Nov-19 02:58 34.196901 -118.352870 178 783ft 0kts
23-Nov-19 02:59 34.196901 -118.352870 178 783ft 0kts
23-Nov-19 03:00 34.196901 -118.352870 178 783ft 0kts
23-Nov-19 03:01 34.196901 -118.352870 178 783ft 0kts
23-Nov-19 03:02 34.196901 -118.352870 178 783ft 0kts
23-Nov-19 03:03 34.196901 -118.352870 178 783ft 0kts
23-Nov-19 03:04 34.196901 -118.352870 178 783ft 0kts
23-Nov-19 03:05 34.196901 -118.352870 178 783ft 0kts
23-Nov-19 03:06 34.196901 -118.352870 178 783ft 0kts
23-Nov-19 03:08 34.196901 -118.352870 178 783ft 0kts
23-Nov-19 03:09 34.196901 -118.352870 178 783ft 0kts
23-Nov-19 03:10 34.196902 -118.352870 178 783ft 0kts
23-Nov-19 03:11 34.197196 -118.352605 269 784ft 0kts
23-Nov-19 03:12 34.197191 -118.352519 271 784ft 0kts
23-Nov-19 03:13 34.197191 -118.352519 271 784ft 0kts
23-Nov-19 03:14 34.197229 -118.355180 270 783ft 11kts
23-Nov-19 03:15 34.200821 -118.355926 346 783ft 22kts
23-Nov-19 03:16 34.206426 -118.357480 346 783ft 19kts
23-Nov-19 03:17 34.211176 -118.358794 343 783ft 15kts
23-Nov-19 03:18 34.201480 -118.357475 167 783ft 141kts
23-Nov-19 03:19 34.158988 -118.367404 234 2392ft 169kts
23-Nov-19 03:20 34.145410 -118.424132 298 4320ft 196kts
23-Nov-19 03:21 34.198103 -118.458300 342 6564ft 251kts
23-Nov-19 03:22 34.268250 -118.435501 26 9490ft 281kts
23-Nov-19 03:23 34.343737 -118.391788 27 11792ft 326kts
23-Nov-19 03:24 34.429899 -118.346798 22 14528ft 346kts
23-Nov-19 03:25 34.511553 -118.284414 42 16921ft 356kts
23-Nov-19 03:26 34.589403 -118.206186 42 18978ft 371kts
23-Nov-19 03:27 34.659480 -118.112996 67 20739ft 377kts
23-Nov-19 03:28 34.682103 -117.989499 97 22326ft 377kts
23-Nov-19 03:28 34.661744 -117.897197 116 23435ft 377kts
23-Nov-19 03:30 34.609039 -117.761085 119 24988ft 388kts
23-Nov-19 03:30 34.569731 -117.661118 120 25965ft 397kts
23-Nov-19 03:31 34.521383 -117.538552 120 27149ft 404kts
23-Nov-19 03:32 34.472433 -117.414935 120 28367ft 406kts
23-Nov-19 03:33 34.423572 -117.292020 121 29460ft 407kts
23-Nov-19 03:35 34.365458 -117.146414 121 30361ft 415kts
23-Nov-19 03:35 34.322651 -117.039098 119 30739ft 433kts
23-Nov-19 03:36 34.278843 -116.898442 117 31097ft 458kts
23-Nov-19 03:37 34.233720 -116.752125 117 31920ft 466kts
23-Nov-19 03:38 34.187898 -116.604363 116 32793ft 472kts
23-Nov-19 03:39 34.141116 -116.454241 116 33703ft 476kts
23-Nov-19 03:40 34.094099 -116.304057 116 34595ft 478kts
23-Nov-19 03:41 34.047098 -116.154733 116 35286ft 482kts
23-Nov-19 03:42 33.998735 -116.001800 116 35255ft 490kts
23-Nov-19 03:43 33.950187 -115.849155 116 35229ft 488kts
23-Nov-19 03:44 33.901407 -115.696488 116 35204ft 490kts
23-Nov-19 03:45 33.852186 -115.543192 116 35208ft 490kts
23-Nov-19 03:46 33.802496 -115.390936 117 35210ft 487kts
23-Nov-19 03:47 33.753236 -115.239679 117 35210ft 486kts
23-Nov-19 03:48 33.703407 -115.087008 117 35218ft 497kts
23-Nov-19 03:49 33.652381 -114.931319 117 35221ft 504kts
23-Nov-19 03:50 33.602389 -114.774436 109 35229ft 506kts
23-Nov-19 03:51 33.582187 -114.605308 98 35226ft 516kts
23-Nov-19 03:52 33.566940 -114.434202 99 35229ft 513kts
23-Nov-19 03:53 33.551990 -114.269426 99 35216ft 514kts
23-Nov-19 03:54 33.536032 -114.096630 99 35212ft 513kts
23-Nov-19 03:55 33.520088 -113.926682 99 35208ft 516kts
23-Nov-19 03:56 33.503708 -113.758415 99 35206ft 513kts
23-Nov-19 03:57 33.487012 -113.585555 99 35082ft 516kts
23-Nov-19 03:58 33.469779 -113.415439 100 35007ft 513kts
23-Nov-19 03:59 33.450574 -113.247948 101 34996ft 513kts
23-Nov-19 04:00 33.430857 -113.077683 101 34999ft 516kts
23-Nov-19 04:01 33.410834 -112.907130 100 35001ft 516kts
23-Nov-19 04:02 33.390373 -112.735381 100 35003ft 523kts
23-Nov-19 04:03 33.369518 -112.562531 100 35007ft 520kts
23-Nov-19 04:04 33.348628 -112.391665 100 35120ft 520kts
23-Nov-19 04:05 33.327530 -112.220389 100 35175ft 519kts
23-Nov-19 04:06 33.308210 -112.065002 100 35172ft 522kts
23-Nov-19 04:07 33.286524 -111.892799 100 35193ft 521kts
23-Nov-19 04:08 33.264673 -111.721410 101 35205ft 520kts
23-Nov-19 04:09 33.242684 -111.551026 100 35209ft 519kts
23-Nov-19 04:10 33.220404 -111.380591 101 35210ft 519kts
23-Nov-19 04:11 33.198019 -111.210570 101 35199ft 519kts
23-Nov-19 04:12 33.175300 -111.039582 101 35197ft 520kts
23-Nov-19 04:13 33.152250 -110.868287 101 35190ft 529kts
23-Nov-19 04:14 33.128541 -110.694314 100 35189ft 530kts
23-Nov-19 04:15 33.104624 -110.520720 101 35213ft 531kts
23-Nov-19 04:16 33.080466 -110.347409 102 35249ft 530kts
23-Nov-19 04:17 33.056154 -110.173588 102 35235ft 526kts
23-Nov-19 04:18 33.031838 -110.001932 102 35236ft 527kts
23-Nov-19 04:19 33.007152 -109.829598 103 35238ft 528kts
23-Nov-19 04:20 32.982170 -109.657131 103 35242ft 527kts
23-Nov-19 04:21 32.957004 -109.485292 103 35245ft 525kts
23-Nov-19 04:22 32.931737 -109.314739 104 35232ft 525kts
23-Nov-19 04:23 32.906137 -109.142494 104 35232ft 529kts
23-Nov-19 04:24 32.880188 -108.969931 103 35239ft 533kts
23-Nov-19 04:25 32.853798 -108.796316 103 35252ft 534kts
23-Nov-19 04:26 32.827151 -108.622906 103 35264ft 533kts
23-Nov-19 04:27 32.800209 -108.449504 103 35268ft 534kts
23-Nov-19 04:28 32.773672 -108.280157 103 35251ft 533kts
23-Nov-19 04:29 32.746459 -108.107243 103 35253ft 533kts
23-Nov-19 04:30 32.718876 -107.933850 104 35257ft 534kts
23-Nov-19 04:31 32.691044 -107.760745 104 35255ft 533kts
23-Nov-19 04:32 32.663017 -107.588261 103 35256ft 534kts
23-Nov-19 04:33 32.634595 -107.415114 104 35261ft 533kts
23-Nov-19 04:34 32.606094 -107.242578 104 35251ft 532kts
23-Nov-19 04:35 32.577565 -107.070949 104 35254ft 534kts
23-Nov-19 04:36 32.548458 -106.897653 104 35258ft 537kts
23-Nov-19 04:37 32.518953 -106.723794 103 35262ft 542kts
23-Nov-19 04:38 32.489007 -106.549037 103 35265ft 540kts
23-Nov-19 04:39 32.458862 -106.374875 103 35255ft 541kts
23-Nov-19 04:40 32.428606 -106.200756 104 35229ft 539kts
23-Nov-19 04:41 32.398136 -106.026762 104 35236ft 541kts
23-Nov-19 04:42 32.367392 -105.852916 104 35240ft 540kts
23-Nov-19 04:43 32.336410 -105.679471 104 35245ft 541kts
23-Nov-19 04:44 32.304995 -105.505235 104 35248ft 540kts
23-Nov-19 04:45 32.273399 -105.331605 104 35238ft 540kts
23-Nov-19 04:46 32.241814 -105.158410 104 35184ft 540kts
23-Nov-19 04:47 32.209898 -104.985020 105 35160ft 542kts
23-Nov-19 04:48 32.177425 -104.810295 105 35159ft 546kts
23-Nov-19 04:49 32.144672 -104.635638 105 35162ft 545kts
23-Nov-19 04:50 32.111714 -104.461492 105 35167ft 545kts
23-Nov-19 04:51 32.078563 -104.287543 106 35149ft 544kts
23-Nov-19 04:52 32.045273 -104.113424 106 35151ft 545kts
23-Nov-19 04:53 32.011764 -103.939784 106 35155ft 545kts
23-Nov-19 04:54 31.977839 -103.765570 106 35159ft 545kts
23-Nov-19 04:55 31.943848 -103.592502 106 35163ft 544kts
23-Nov-19 04:56 31.909553 -103.419196 106 35167ft 544kts
23-Nov-19 04:57 31.878811 -103.244644 93 35159ft 547kts
23-Nov-19 04:58 31.893358 -103.065953 81 35154ft 551kts
23-Nov-19 04:59 31.912002 -102.885984 82 35158ft 555kts
23-Nov-19 05:00 31.930326 -102.706202 82 35162ft 554kts
23-Nov-19 05:01 31.948377 -102.526533 82 35167ft 554kts
23-Nov-19 05:02 31.966235 -102.346193 83 35166ft 554kts
23-Nov-19 05:03 31.983883 -102.166136 83 35143ft 554kts
23-Nov-19 05:04 32.001252 -101.985412 82 35147ft 555kts
23-Nov-19 05:05 32.018316 -101.805172 83 35164ft 554kts
23-Nov-19 05:06 32.035146 -101.624658 83 35174ft 554kts
23-Nov-19 05:07 32.051701 -101.444280 83 35178ft 554kts
23-Nov-19 05:08 32.068070 -101.263832 83 35159ft 553kts
23-Nov-19 05:09 32.084135 -101.083249 83 35163ft 555kts
23-Nov-19 05:10 32.099956 -100.902319 83 35159ft 556kts
23-Nov-19 05:11 32.115706 -100.719144 83 35152ft 559kts
23-Nov-19 05:12 32.131067 -100.537392 83 35156ft 558kts
23-Nov-19 05:13 32.146277 -100.354213 83 35169ft 558kts
23-Nov-19 05:14 32.161271 -100.171679 84 35136ft 558kts
23-Nov-19 05:15 32.175882 -99.989320 84 35127ft 558kts
23-Nov-19 05:16 32.184900 -99.806418 91 35143ft 557kts
23-Nov-19 05:17 32.183884 -99.622945 91 35143ft 558kts
23-Nov-19 05:18 32.181776 -99.438122 91 35160ft 574kts
23-Nov-19 05:19 32.179475 -99.249912 92 35148ft 570kts
23-Nov-19 05:20 32.177081 -99.079973 92 35159ft 572kts
23-Nov-19 05:21 32.174170 -98.891904 92 35157ft 572kts
23-Nov-19 05:22 32.175392 -98.704414 84 35174ft 573kts
23-Nov-19 05:23 32.192212 -98.517650 83 33729ft 572kts
23-Nov-19 05:24 32.208337 -98.334482 83 31250ft 566kts
23-Nov-19 05:25 32.223320 -98.164181 83 28877ft 550kts
23-Nov-19 05:26 32.238458 -97.988380 83 26539ft 526kts
23-Nov-19 05:27 32.252677 -97.820190 83 24249ft 502kts
23-Nov-19 05:28 32.265512 -97.659508 82 22014ft 480kts
23-Nov-19 05:29 32.280181 -97.506526 72 19803ft 456kts
23-Nov-19 05:30 32.325026 -97.375550 58 17597ft 417kts
23-Nov-19 05:31 32.374882 -97.255461 59 15055ft 396kts
23-Nov-19 05:33 32.421795 -97.140426 60 12863ft 381kts
23-Nov-19 05:34 32.467235 -97.027870 60 10502ft 376kts
23-Nov-19 05:35 32.510838 -96.917226 60 8097ft 363kts
23-Nov-19 05:36 32.551110 -96.818542 58 7132ft 299kts
23-Nov-19 05:37 32.587766 -96.740710 52 6248ft 243kts
23-Nov-19 05:38 32.620222 -96.676510 53 4640ft 215kts
23-Nov-19 05:39 32.656795 -96.630437 348 3031ft 189kts
23-Nov-19 05:40 32.694750 -96.666442 315 2516ft 172kts
23-Nov-19 05:41 32.728702 -96.706612 315 2511ft 170kts
23-Nov-19 05:42 32.762159 -96.746230 314 2507ft 169kts
23-Nov-19 05:43 32.795716 -96.785507 315 1930ft 168kts
23-Nov-19 05:44 32.826573 -96.821237 315 886ft 141kts
23-Nov-19 05:45 32.851017 -96.849554 315 492ft 52kts
23-Nov-19 05:46 32.850561 -96.852129 147 492ft 14kts
23-Nov-19 05:47 32.847632 -96.850838 193 492ft 15kts
23-Nov-19 05:48 32.846618 -96.850865 181 492ft 0kts
23-Nov-19 05:49 32.846618 -96.850865 181 492ft 0kts
23-Nov-19 05:50 32.846618 -96.850865 181 492ft 0kts
23-Nov-19 05:51 32.846618 -96.850865 181 492ft 0kts
23-Nov-19 05:51 32.846618 -96.850865 181 492ft 0kts

Navigation Log

Ident Type
Flight plan parsing failed, navigation log unavailable